createdAt,value
2023-01-23T00:04:42.359Z,63.15
2023-01-23T00:09:44.867Z,58.55
2023-01-23T00:14:47.355Z,59.25
2023-01-23T00:19:53.469Z,54.38
2023-01-23T00:24:55.900Z,63.25
2023-01-23T00:29:59.468Z,51.83
2023-01-23T00:35:02.516Z,55.97
2023-01-23T00:40:11.028Z,49.80
2023-01-23T00:45:13.897Z,56.63
2023-01-23T00:50:18.254Z,55.75
2023-01-23T00:55:20.757Z,53.70
2023-01-23T01:00:23.141Z,58.63
2023-01-23T01:05:25.671Z,53.80
2023-01-23T01:10:29.812Z,61.28
2023-01-23T01:15:32.323Z,56.58
2023-01-23T01:20:34.833Z,59.90
2023-01-23T01:25:37.624Z,63.67
2023-01-23T01:30:41.017Z,57.07
2023-01-23T01:35:43.877Z,55.40
2023-01-23T01:40:50.143Z,62.93
2023-01-23T01:46:08.042Z,65.00
2023-01-23T01:51:13.691Z,69.57
2023-01-23T01:56:17.882Z,61.25
2023-01-23T02:01:21.610Z,65.82
2023-01-23T02:06:25.506Z,63.38
2023-01-23T02:11:30.999Z,62.65
2023-01-23T02:16:40.391Z,59.20
2023-01-23T02:21:57.708Z,58.67
2023-01-23T02:27:00.810Z,55.95
2023-01-23T02:32:05.787Z,62.03
2023-01-23T02:37:08.946Z,62.47
2023-01-23T02:42:11.677Z,56.13
2023-01-23T02:47:23.225Z,62.80
2023-01-23T02:52:25.701Z,66.68
2023-01-23T02:57:28.454Z,63.35
2023-01-23T03:02:31.122Z,40.40
2023-01-23T03:07:36.952Z,55.80
2023-01-23T03:12:43.457Z,53.65
2023-01-23T03:17:46.626Z,63.30
2023-01-23T03:22:49.745Z,74.43
2023-01-23T03:27:52.058Z,71.00
2023-01-23T03:32:55.278Z,60.75
2023-01-23T03:37:58.074Z,76.90
2023-01-23T03:43:00.982Z,64.93
2023-01-23T03:48:04.519Z,64.88
2023-01-23T03:53:09.132Z,64.45
2023-01-23T03:58:13.890Z,68.90
2023-01-23T04:03:18.994Z,67.18
2023-01-23T04:08:22.961Z,72.88
2023-01-23T04:13:25.931Z,159.40
2023-01-23T04:18:28.793Z,199.25
2023-01-23T04:23:31.986Z,128.10
2023-01-23T04:28:35.171Z,118.97
2023-01-23T04:33:40.269Z,62.08
2023-01-23T04:38:44.310Z,67.82
2023-01-23T04:44:20.320Z,60.38
2023-01-23T04:49:43.524Z,60.45
2023-01-23T04:54:46.135Z,66.25
2023-01-23T04:59:49.025Z,64.35
2023-01-23T05:04:51.745Z,75.70
2023-01-23T05:09:58.962Z,72.87
2023-01-23T05:15:03.389Z,85.43
2023-01-23T05:20:09.112Z,87.25
2023-01-23T05:25:25.943Z,117.00
2023-01-23T05:30:30.367Z,82.15
2023-01-23T05:35:49.445Z,86.45
2023-01-23T05:40:54.267Z,86.80
2023-01-23T05:46:19.571Z,74.07
2023-01-23T05:51:31.782Z,77.05
2023-01-23T05:56:36.226Z,76.53
2023-01-23T06:02:07.196Z,150.70
2023-01-23T06:07:41.609Z,98.47
2023-01-23T06:12:46.015Z,71.32
2023-01-23T06:17:58.198Z,66.25
2023-01-23T06:23:02.072Z,62.17
2023-01-23T06:28:07.582Z,64.32
2023-01-23T06:33:12.815Z,69.57
2023-01-23T06:38:17.210Z,69.90
2023-01-23T06:43:23.580Z,74.93
2023-01-23T06:48:26.351Z,90.25
2023-01-23T06:53:29.405Z,62.58
2023-01-23T06:58:33.333Z,64.55
2023-01-23T07:03:37.600Z,64.63
2023-01-23T07:08:41.033Z,94.10
2023-01-23T07:13:43.992Z,115.00
2023-01-23T07:18:48.347Z,86.03
2023-01-23T07:28:56.981Z,85.68
2023-01-23T07:33:59.357Z,70.13
2023-01-23T07:39:02.894Z,65.88
2023-01-23T07:44:06.914Z,66.80
2023-01-23T07:49:10.293Z,64.90
2023-01-23T07:54:12.664Z,62.03
2023-01-23T07:59:15.015Z,68.28
2023-01-23T08:04:17.478Z,72.28
2023-01-23T08:10:11.256Z,81.45
2023-01-23T08:15:53.037Z,70.40
2023-01-23T08:21:16.707Z,59.20
2023-01-23T08:26:19.192Z,63.15
2023-01-23T08:31:26.375Z,55.78
2023-01-23T08:37:00.283Z,61.47
2023-01-23T08:42:02.860Z,66.95
2023-01-23T08:47:05.503Z,67.15
2023-01-23T08:52:07.922Z,77.28
2023-01-23T08:57:11.444Z,85.72
2023-01-23T09:02:15.143Z,85.95
2023-01-23T09:07:18.720Z,96.93
2023-01-23T09:12:24.282Z,98.25
2023-01-23T09:17:26.709Z,93.05
2023-01-23T09:22:29.077Z,74.40
2023-01-23T09:27:31.757Z,80.20
2023-01-23T09:32:34.127Z,66.13
2023-01-23T09:38:00.157Z,77.37
2023-01-23T09:43:31.527Z,78.18
2023-01-23T09:48:54.917Z,87.28
2023-01-23T09:54:05.165Z,95.10
2023-01-23T09:59:14.817Z,90.05
2023-01-23T10:04:19.955Z,80.78
2023-01-23T10:09:51.673Z,81.85
2023-01-23T10:15:37.515Z,82.20
2023-01-23T10:21:16.060Z,96.45
2023-01-23T10:27:11.369Z,77.13
2023-01-23T10:33:09.946Z,93.28
2023-01-23T10:39:11.674Z,93.82
2023-01-23T11:00:31.363Z,159.48
2023-01-23T11:09:23.787Z,118.70
2023-01-23T11:14:49.171Z,111.68
2023-01-23T11:19:56.095Z,106.80
2023-01-23T11:31:53.119Z,102.30
2023-01-23T11:37:40.099Z,99.45
2023-01-23T11:43:04.904Z,80.35
2023-01-23T11:48:14.908Z,88.32
2023-01-23T11:57:04.039Z,82.32
2023-01-23T12:11:40.144Z,77.22
2023-01-23T12:19:18.173Z,97.53
2023-01-23T12:24:39.217Z,87.15
2023-01-23T12:30:28.484Z,85.35
2023-01-23T12:42:21.711Z,95.97
2023-01-23T12:47:28.908Z,91.63
2023-01-23T12:52:44.846Z,83.03
2023-01-23T12:58:07.235Z,81.32
2023-01-23T13:03:47.200Z,79.43
2023-01-23T13:09:31.530Z,84.00
2023-01-23T13:15:50.574Z,97.25
2023-01-23T13:21:39.754Z,127.18
2023-01-23T13:26:48.321Z,97.03
2023-01-23T13:31:52.810Z,93.43
2023-01-23T13:36:56.370Z,86.78
2023-01-23T13:42:18.649Z,105.35
2023-01-23T14:28:43.586Z,165.50
2023-01-23T14:34:10.630Z,114.10
2023-01-23T14:39:34.769Z,110.85
2023-01-23T14:44:46.540Z,61.30
2023-01-23T14:49:52.809Z,83.75
2023-01-23T14:55:30.385Z,135.23
2023-01-23T15:00:34.993Z,133.88
2023-01-23T15:05:44.031Z,214.43
2023-01-23T15:10:53.659Z,111.35
2023-01-23T15:16:00.737Z,166.43
2023-01-23T15:21:08.324Z,150.35
2023-01-23T15:26:22.211Z,147.38
2023-01-23T15:31:26.356Z,193.93
2023-01-23T15:36:34.151Z,166.13
2023-01-23T15:41:45.621Z,122.38
2023-01-23T15:47:01.794Z,142.95
2023-01-23T15:52:53.701Z,148.88
2023-01-23T15:58:02.939Z,119.30
2023-01-23T16:03:09.522Z,104.70
2023-01-23T16:08:27.066Z,120.88
2023-01-23T16:13:43.336Z,141.70
2023-01-23T16:18:47.458Z,188.10
2023-01-23T16:23:50.176Z,175.60
2023-01-23T16:29:08.529Z,150.07
2023-01-23T16:34:15.422Z,110.30
2023-01-23T16:39:19.871Z,147.38
2023-01-23T16:44:26.972Z,129.80
2023-01-23T16:49:46.805Z,116.40
2023-01-23T16:54:54.650Z,138.97
2023-01-23T16:59:58.482Z,117.57
2023-01-23T17:10:04.060Z,125.50
2023-01-23T17:15:07.496Z,95.68
2023-01-23T17:20:11.224Z,116.55
2023-01-23T17:25:19.833Z,117.10
2023-01-23T17:30:25.814Z,113.72
2023-01-23T17:35:34.901Z,99.82
2023-01-23T17:40:37.468Z,107.68
2023-01-23T17:45:42.087Z,118.00
2023-01-23T17:50:45.764Z,134.95
2023-01-23T17:55:54.608Z,140.57
2023-01-23T18:01:03.055Z,160.50
2023-01-23T18:06:24.888Z,136.18
2023-01-23T18:11:38.256Z,133.80
2023-01-23T18:16:50.167Z,112.25
2023-01-23T18:21:56.173Z,109.15
2023-01-23T18:27:22.916Z,106.20
2023-01-23T18:32:41.260Z,127.20
2023-01-23T18:38:01.596Z,132.25
2023-01-23T18:43:35.846Z,143.82
2023-01-23T18:48:44.410Z,150.27
2023-01-23T18:53:56.129Z,142.15
2023-01-23T18:59:12.229Z,127.18
2023-01-23T19:04:16.083Z,134.73
2023-01-23T19:09:20.669Z,127.05
2023-01-23T19:14:53.778Z,204.65
2023-01-23T19:20:44.763Z,163.60
2023-01-23T19:25:48.085Z,158.50
2023-01-23T19:30:50.916Z,153.38
2023-01-23T19:35:56.703Z,161.17
2023-01-23T19:41:01.927Z,167.68
2023-01-23T19:46:04.559Z,188.63
2023-01-23T19:51:11.234Z,135.47
2023-01-23T19:56:15.311Z,182.55
2023-01-23T20:01:49.570Z,179.25
2023-01-23T20:06:52.592Z,192.80
2023-01-23T20:12:02.137Z,150.70
2023-01-23T20:17:05.475Z,163.75
2023-01-23T20:22:08.155Z,181.30
2023-01-23T20:27:11.822Z,196.77
2023-01-23T20:32:14.276Z,206.40
2023-01-23T20:37:27.124Z,184.13
2023-01-23T20:42:56.184Z,193.80
2023-01-23T20:48:07.115Z,222.23
2023-01-23T20:53:30.835Z,235.57
2023-01-23T20:58:56.375Z,182.05
2023-01-23T21:04:40.540Z,145.10
2023-01-23T21:09:51.408Z,164.82
2023-01-23T21:20:33.508Z,206.48
2023-01-23T21:25:37.190Z,181.60
2023-01-23T21:30:42.555Z,156.63
2023-01-23T21:41:20.883Z,193.50
2023-01-23T21:46:23.531Z,186.50
2023-01-23T22:03:51.760Z,160.70
2023-01-23T22:09:40.276Z,155.35
2023-01-23T22:15:16.623Z,183.98
2023-01-23T22:20:22.848Z,170.98
2023-01-23T22:25:25.261Z,169.50
2023-01-23T22:41:50.367Z,160.43
2023-01-23T22:47:07.162Z,197.80
2023-01-23T22:52:15.217Z,157.68
2023-01-23T22:57:33.173Z,154.13
2023-01-23T23:02:36.090Z,161.23
2023-01-23T23:07:38.829Z,178.33
2023-01-23T23:12:45.382Z,141.70
2023-01-23T23:18:04.419Z,137.27
2023-01-23T23:23:31.045Z,157.63
2023-01-23T23:28:34.278Z,141.57
2023-01-23T23:33:44.262Z,127.75
2023-01-23T23:39:04.019Z,131.65
2023-01-23T23:44:09.292Z,136.68
2023-01-23T23:49:13.885Z,133.10
2023-01-23T23:54:16.551Z,128.05
2023-01-23T23:59:19.144Z,138.57
